Flag for France

Past Weather in 47°35'38.0"N, 1°19'41.0"E, France — Yesterday and Last 2 Weeks

Currently: 41 °F. Sunny. (Weather station: Romorantin, France). See more current weather

Past Weather in 47°35'38.0"N, 1°19'41.0"E — Graph

°F

47°35'38.0"N, 1°19'41.0"E Temperature Yesterday

Maximum temperature yesterday: 52 °F (at 4:00 pm)
Minimum temperature yesterday: 36 °F (at 4:30 am)
Average temperature yesterday: 43 °F

High & Low Weather Summary for the Past Weeks

 TemperatureHumidityPressure
High66 °F (Feb 15, 1:00 pm)100% (Feb 8, 4:30 am)30.57 "Hg (Feb 8, 4:30 am)
Low28 °F (Feb 13, 5:30 am)48% (Feb 17, 2:30 pm)29.03 "Hg (Feb 10, 4:30 am)
Average49 °F86%29.97 "Hg
* Reported Feb 6 8:00 am — Feb 21 8:00 am, 47°35'38.0"N, 1°19'41.0"E. Weather by CustomWeather, © 2024

Note: Actual official high and low records may vary slightly from our data, if they occured in-between our weather recording intervals... More about our weather records

47°35'38.0"N, 1°19'41.0"E Weather History for the Previous 24 Hours

Scroll right to see more
 ConditionsComfort  
Time TempWeatherWind HumidityBarometerVisibility
8:00 am
Wed, Feb 21
39 °FSunny.No wind100%30.18 "Hg10 mi
7:30 am39 °FClear.No wind100%30.18 "Hg10 mi
7:00 am39 °FClear.No wind93%30.21 "Hg10 mi
6:30 am37 °FClear.No wind100%30.21 "Hg6 mi
6:00 am39 °FClear.No wind93%30.24 "Hg10 mi
5:30 am37 °FClear.1 mph100%30.24 "Hg10 mi
5:00 am37 °FClear.No wind100%30.24 "Hg10 mi
4:30 am39 °FClear.1 mph93%30.24 "Hg10 mi
4:00 am37 °FClear.2 mph100%30.24 "Hg10 mi
3:30 am37 °FClear.2 mph100%30.27 "Hg10 mi
3:00 am37 °FClear.No wind93%30.30 "Hg6 mi
2:30 am37 °FClear.No wind93%30.30 "Hg10 mi
2:00 am39 °FClear.No wind93%30.30 "Hg10 mi
12:30 am41 °FClear.No wind93%30.33 "Hg10 mi
12:00 am41 °FMostly cloudy.3 mph93%30.36 "HgN/A
11:30 pm
Tue, Feb 20
45 °FMostly cloudy.No wind87%30.39 "HgN/A
11:00 pm45 °FClear.2 mph87%30.39 "Hg10 mi
10:30 pm45 °FClear.2 mph87%30.39 "Hg10 mi
10:00 pm45 °FClear.2 mph87%30.39 "Hg10 mi
9:30 pm41 °FClear.2 mph93%30.39 "Hg10 mi
9:00 pm41 °FClear.No wind93%30.39 "Hg10 mi
8:30 pm41 °FClear.No wind100%30.42 "Hg10 mi
8:00 pm41 °FClear.No wind93%30.42 "Hg10 mi
7:30 pm43 °FClear.No wind93%30.42 "Hg10 mi
7:00 pm46 °FClear.No wind82%30.42 "Hg10 mi
6:30 pm46 °FClear.2 mph82%30.42 "Hg10 mi
6:00 pm50 °FScattered clouds.3 mph71%30.42 "HgN/A
5:30 pm50 °FScattered clouds.5 mph76%30.42 "HgN/A
5:00 pm52 °FPassing clouds.6 mph72%30.42 "HgN/A
4:30 pm52 °FScattered clouds.6 mph72%30.45 "HgN/A
4:00 pm52 °FOvercast.7 mph72%30.42 "HgN/A
3:30 pm50 °FPartly sunny.6 mph76%30.45 "HgN/A
3:00 pm50 °FOvercast.6 mph76%30.48 "HgN/A
2:30 pm50 °FOvercast.5 mph76%30.51 "HgN/A
2:00 pm48 °FOvercast.3 mph94%30.51 "HgN/A
1:30 pm46 °FLow clouds.3 mph93%30.51 "HgN/A
1:00 pm46 °FLow clouds.5 mph100%30.51 "HgN/A
12:30 pm45 °FFog.5 mph100%30.51 "Hg2 mi
12:00 pm45 °FFog.3 mph100%30.54 "Hg3 mi
11:30 am45 °FFog.3 mph100%30.54 "Hg1 mi
11:00 am43 °FFog.3 mph100%30.54 "Hg1 mi
10:30 am43 °FFog.3 mph100%30.54 "Hg1 mi
10:00 am43 °FFog.3 mph100%30.54 "Hg1 mi
9:30 am41 °FFog.3 mph100%30.54 "Hg1 mi
9:00 am41 °FFog.3 mph100%30.54 "Hg1 mi
Weather by CustomWeather, © 2024

See weather overview